aviador You're here:

KLWC Decoded Metar

LAWRENCE in KS, USA
Report Time2018-06-25 09:52:00
UTC Time2018-06-25 09:56:18
Flight Rules vfr VFR
Wind240° at 03 kt
W.Decomp.*RWY 19: 2.1 kt HW 2.2 kt RCW
RWY 15: 0.2 kt HW 3.0 kt RCW
W.Rank240° ranks 34
Current wind is below 240° avg. (8.2)
Visibility9999 m
Phenomena:N/A
Clouds:Few 025 Hf
Scattered 120 Hf
Expected CloudBase > 400 ft AGL from Temp-Dew spread
CeilingNone
Temp21°C (ISA +8)
Dew Point20°C (94% RH)
QNH1013 hPa
Density Alt2,034 ft
Elevation830 ft
Report Wrong Elevation
Raw Report
KLWC 250952Z AUTO 24003KT 10SM FEW025 SCT120 21/20 A2991 RMK AO2
SLP121 T02060200=

Extra information for KLWC:More info

Metar Taf Metar & Taf Last 4 Metars F.Rules Stats Wind Profile Meteogram Temp Stats Airport Information Weather charts Add Link Nearby VenuesMetar ALERT Operation Metar Decoded Social comments

AIRNAV info for KLWC
GUT Works, LLC